createdAt,value
2022-12-06T00:00:29.733Z,0
2022-12-06T00:01:46.023Z,0
2022-12-06T00:03:02.307Z,0
2022-12-06T00:04:18.606Z,0
2022-12-06T00:05:34.891Z,0
2022-12-06T00:06:51.191Z,0
2022-12-06T00:08:07.497Z,0
2022-12-06T00:09:23.784Z,0
2022-12-06T00:10:40.075Z,0
2022-12-06T00:11:55.388Z,0
2022-12-06T00:13:11.689Z,0
2022-12-06T00:14:27.983Z,0
2022-12-06T00:15:44.277Z,0
2022-12-06T00:17:00.559Z,0
2022-12-06T00:18:16.871Z,0
2022-12-06T00:19:33.157Z,0
2022-12-06T00:20:49.453Z,0
2022-12-06T00:22:05.740Z,0
2022-12-06T00:23:22.044Z,0
2022-12-06T00:24:38.334Z,0
2022-12-06T00:25:54.630Z,0
2022-12-06T00:27:10.921Z,0
2022-12-06T00:28:26.243Z,0
2022-12-06T00:29:42.526Z,0
2022-12-06T00:30:58.831Z,0
2022-12-06T00:32:15.122Z,0
2022-12-06T00:34:47.708Z,0
2022-12-06T00:36:04.002Z,0
2022-12-06T00:37:20.297Z,0
2022-12-06T00:38:36.594Z,0
2022-12-06T00:39:52.893Z,0
2022-12-06T00:41:09.191Z,0
2022-12-06T00:42:25.484Z,0
2022-12-06T00:43:41.771Z,0
2022-12-06T00:44:57.079Z,0
2022-12-06T00:46:13.382Z,0
2022-12-06T00:47:29.678Z,0
2022-12-06T00:48:45.981Z,0
2022-12-06T00:50:02.271Z,0
2022-12-06T00:51:18.569Z,0
2022-12-06T00:52:34.845Z,0
2022-12-06T00:53:51.141Z,0
2022-12-06T00:55:07.456Z,0
2022-12-06T00:56:23.746Z,0
2022-12-06T00:57:40.041Z,0
2022-12-06T00:58:56.324Z,0
2022-12-06T01:00:12.621Z,0
2022-12-06T01:01:27.938Z,0
2022-12-06T01:02:44.226Z,0
2022-12-06T01:04:00.529Z,0
2022-12-06T01:05:16.827Z,0
2022-12-06T01:06:33.120Z,0
2022-12-06T01:07:49.408Z,0
2022-12-06T01:09:05.693Z,0
2022-12-06T01:10:21.998Z,0
2022-12-06T01:11:38.299Z,0
2022-12-06T01:12:54.590Z,0
2022-12-06T01:14:10.875Z,0
2022-12-06T01:15:27.185Z,0
2022-12-06T01:16:43.478Z,0
2022-12-06T01:17:58.786Z,0
2022-12-06T01:19:15.085Z,0
2022-12-06T01:20:31.376Z,0
2022-12-06T01:21:47.665Z,0
2022-12-06T01:23:03.953Z,0
2022-12-06T01:24:20.265Z,0
2022-12-06T01:25:36.545Z,0
2022-12-06T01:26:52.843Z,0
2022-12-06T01:28:09.138Z,0
2022-12-06T01:29:25.436Z,0
2022-12-06T01:30:41.739Z,0
2022-12-06T01:31:58.031Z,0
2022-12-06T01:33:14.326Z,0
2022-12-06T01:34:29.629Z,0
2022-12-06T01:35:45.918Z,0
2022-12-06T01:37:02.225Z,0
2022-12-06T01:38:18.518Z,0
2022-12-06T01:39:34.817Z,0
2022-12-06T01:40:51.111Z,0
2022-12-06T01:42:07.395Z,0
2022-12-06T01:43:23.703Z,0
2022-12-06T01:45:56.281Z,0
2022-12-06T01:47:12.582Z,0
2022-12-06T01:48:28.875Z,0
2022-12-06T01:49:45.164Z,0
2022-12-06T01:51:00.479Z,0
2022-12-06T01:52:16.768Z,0
2022-12-06T01:53:33.070Z,0
2022-12-06T01:54:49.355Z,0
2022-12-06T01:56:05.657Z,0
2022-12-06T01:57:21.952Z,0
2022-12-06T01:58:38.241Z,0
2022-12-06T01:59:54.540Z,0
2022-12-06T02:01:10.830Z,0
2022-12-06T02:02:27.128Z,0
2022-12-06T02:03:43.421Z,0
2022-12-06T02:04:59.727Z,0
2022-12-06T02:06:16.010Z,0
2022-12-06T02:07:31.328Z,0
2022-12-06T02:08:47.619Z,0
2022-12-06T02:10:03.926Z,0
2022-12-06T02:11:20.207Z,0
2022-12-06T02:12:36.500Z,0
2022-12-06T02:13:52.794Z,0
2022-12-06T02:15:09.089Z,0
2022-12-06T02:16:25.398Z,0
2022-12-06T02:17:41.676Z,0
2022-12-06T02:18:57.977Z,0
2022-12-06T02:20:14.276Z,0
2022-12-06T02:21:30.579Z,0
2022-12-06T02:22:46.867Z,0
2022-12-06T02:24:02.182Z,0
2022-12-06T02:25:18.466Z,0
2022-12-06T02:26:34.758Z,0
2022-12-06T02:27:51.064Z,0
2022-12-06T02:29:07.000Z,0
2022-12-06T02:30:23.656Z,0
2022-12-06T02:31:39.953Z,0
2022-12-06T02:32:56.229Z,0
2022-12-06T02:34:12.528Z,0
2022-12-06T02:35:28.833Z,0
2022-12-06T02:36:45.125Z,0
2022-12-06T02:38:01.412Z,0
2022-12-06T02:39:17.714Z,0
2022-12-06T02:40:33.031Z,0
2022-12-06T02:41:49.314Z,0
2022-12-06T02:43:05.603Z,0
2022-12-06T02:44:21.897Z,0
2022-12-06T02:45:38.199Z,0
2022-12-06T02:46:54.494Z,0
2022-12-06T02:48:10.787Z,0
2022-12-06T02:49:27.084Z,0
2022-12-06T02:50:43.370Z,0
2022-12-06T02:51:59.669Z,0
2022-12-06T02:53:15.977Z,0
2022-12-06T02:54:31.288Z,0
2022-12-06T02:55:47.589Z,0
2022-12-06T02:57:03.874Z,0
2022-12-06T02:58:20.160Z,0
2022-12-06T02:59:36.462Z,0
2022-12-06T03:00:52.767Z,0
2022-12-06T03:02:09.050Z,0
2022-12-06T03:03:25.355Z,0
2022-12-06T03:04:41.647Z,0
2022-12-06T03:05:57.941Z,0
2022-12-06T03:07:14.226Z,0
2022-12-06T03:08:30.526Z,0
2022-12-06T03:09:46.826Z,0
2022-12-06T03:11:02.129Z,0
2022-12-06T03:12:18.000Z,0
2022-12-06T03:13:34.721Z,0
2022-12-06T03:14:51.019Z,0
2022-12-06T03:16:07.307Z,0
2022-12-06T03:17:23.610Z,0
2022-12-06T03:18:39.908Z,0
2022-12-06T03:19:56.190Z,0
2022-12-06T03:21:12.491Z,0
2022-12-06T03:22:28.782Z,0
2022-12-06T03:23:45.084Z,0
2022-12-06T03:25:01.381Z,0
2022-12-06T03:26:17.662Z,0
2022-12-06T03:27:32.972Z,0
2022-12-06T03:30:05.571Z,0
2022-12-06T03:31:21.865Z,0
2022-12-06T03:32:38.160Z,0
2022-12-06T03:33:54.459Z,0
2022-12-06T03:35:10.754Z,0
2022-12-06T03:36:27.037Z,0
2022-12-06T03:37:43.343Z,0
2022-12-06T03:38:59.623Z,0
2022-12-06T03:40:15.921Z,0
2022-12-06T03:41:32.226Z,0
2022-12-06T03:42:48.521Z,0
2022-12-06T03:44:03.825Z,0
2022-12-06T03:45:20.115Z,0
2022-12-06T03:46:36.415Z,0
2022-12-06T03:47:52.712Z,0
2022-12-06T03:49:09.001Z,0
2022-12-06T03:50:25.308Z,0
2022-12-06T03:51:41.604Z,0
2022-12-06T03:52:57.901Z,0
2022-12-06T03:54:14.188Z,0
2022-12-06T03:55:30.490Z,0
2022-12-06T03:58:03.077Z,0
2022-12-06T03:59:19.357Z,0
2022-12-06T04:00:34.669Z,0
2022-12-06T04:01:50.975Z,0
2022-12-06T04:03:07.270Z,0
2022-12-06T04:04:23.555Z,0
2022-12-06T04:05:39.844Z,0
2022-12-06T04:06:56.144Z,0
2022-12-06T04:08:12.437Z,0
2022-12-06T04:09:28.731Z,0
2022-12-06T04:10:45.026Z,0
2022-12-06T04:12:01.336Z,0
2022-12-06T04:13:17.629Z,0
2022-12-06T04:14:33.924Z,0
2022-12-06T04:15:50.208Z,0
2022-12-06T04:17:05.526Z,0
2022-12-06T04:18:21.816Z,0
2022-12-06T04:19:38.103Z,0
2022-12-06T04:20:54.402Z,0
2022-12-06T04:22:10.705Z,0
2022-12-06T04:23:26.989Z,0
2022-12-06T04:24:43.300Z,0
2022-12-06T04:25:59.593Z,0
2022-12-06T04:27:15.882Z,0
2022-12-06T04:28:32.168Z,0
2022-12-06T04:29:48.472Z,0
2022-12-06T04:31:04.758Z,0
2022-12-06T04:32:21.071Z,0
2022-12-06T04:33:36.381Z,0
2022-12-06T04:34:52.658Z,0
2022-12-06T04:36:08.970Z,0
2022-12-06T04:38:41.546Z,0
2022-12-06T04:39:57.853Z,0
2022-12-06T04:41:14.147Z,0
2022-12-06T04:42:30.427Z,0
2022-12-06T04:43:46.721Z,0
2022-12-06T04:45:03.031Z,0
2022-12-06T04:46:19.315Z,0
2022-12-06T04:47:35.622Z,0
2022-12-06T04:48:51.915Z,0
2022-12-06T04:50:07.217Z,0
2022-12-06T04:51:23.507Z,0
2022-12-06T04:52:39.800Z,0
2022-12-06T04:53:56.096Z,0
2022-12-06T04:55:12.403Z,0
2022-12-06T04:56:28.688Z,0
2022-12-06T04:57:44.987Z,0
2022-12-06T04:59:01.293Z,0
2022-12-06T05:00:17.588Z,0
2022-12-06T05:01:33.885Z,0
2022-12-06T05:02:50.165Z,0
2022-12-06T05:05:22.758Z,0
2022-12-06T05:06:38.072Z,0
2022-12-06T05:07:54.359Z,0
2022-12-06T05:09:10.657Z,0
2022-12-06T05:10:26.955Z,0
2022-12-06T05:11:43.257Z,0
2022-12-06T05:12:59.541Z,0
2022-12-06T05:14:15.837Z,0
2022-12-06T05:15:32.135Z,0
2022-12-06T05:16:48.436Z,0
2022-12-06T05:18:04.721Z,0
2022-12-06T05:19:21.023Z,0
2022-12-06T05:20:37.314Z,0
2022-12-06T05:21:53.611Z,0
2022-12-06T05:23:08.911Z,0
2022-12-06T05:24:25.217Z,0
2022-12-06T05:25:41.498Z,0
2022-12-06T05:26:57.798Z,0
2022-12-06T05:28:14.104Z,0
2022-12-06T05:29:30.396Z,0
2022-12-06T05:30:46.686Z,0
2022-12-06T05:32:02.977Z,0
2022-12-06T05:33:19.271Z,0
2022-12-06T05:34:35.563Z,0
2022-12-06T05:35:51.876Z,0
2022-12-06T05:37:08.156Z,0
2022-12-06T05:38:24.467Z,0
2022-12-06T05:39:39.758Z,0
2022-12-06T05:40:56.064Z,0
2022-12-06T05:42:12.362Z,0
2022-12-06T05:43:28.645Z,0
2022-12-06T05:44:44.938Z,0
2022-12-06T05:46:01.239Z,0
2022-12-06T05:47:17.541Z,0
2022-12-06T05:48:33.826Z,0
2022-12-06T05:49:50.135Z,0
2022-12-06T05:51:06.428Z,0
2022-12-06T05:52:22.718Z,0
2022-12-06T05:54:55.297Z,0
2022-12-06T05:56:10.616Z,0
2022-12-06T05:57:26.921Z,0
2022-12-06T05:58:43.208Z,0
2022-12-06T05:59:59.504Z,0
2022-12-06T06:02:32.085Z,0
2022-12-06T06:03:48.396Z,0
2022-12-06T06:05:04.680Z,0
2022-12-06T06:06:20.979Z,0
2022-12-06T06:07:37.279Z,0
2022-12-06T06:08:53.570Z,0
2022-12-06T06:10:09.852Z,0
2022-12-06T06:11:26.157Z,0
2022-12-06T06:12:41.471Z,0
2022-12-06T06:13:57.760Z,0
2022-12-06T06:15:14.045Z,0
2022-12-06T06:16:30.351Z,0
2022-12-06T06:17:46.650Z,0
2022-12-06T06:19:02.948Z,0
2022-12-06T06:20:19.229Z,0
2022-12-06T06:21:35.525Z,0
2022-12-06T06:22:51.833Z,0
2022-12-06T06:24:08.064Z,1
2022-12-06T06:25:24.369Z,0
2022-12-06T06:26:40.664Z,0
2022-12-06T06:27:56.913Z,1
2022-12-06T06:29:12.171Z,1
2022-12-06T06:30:28.416Z,1
2022-12-06T06:31:44.654Z,2
2022-12-06T06:33:00.883Z,2
2022-12-06T06:34:17.120Z,1
2022-12-06T06:35:33.367Z,2
2022-12-06T06:36:49.610Z,1
2022-12-06T06:38:05.857Z,2
2022-12-06T06:40:38.341Z,10
2022-12-06T06:41:54.575Z,5
2022-12-06T06:43:10.814Z,7
2022-12-06T06:44:27.055Z,8
2022-12-06T06:45:42.313Z,11
2022-12-06T06:46:58.545Z,8
2022-12-06T06:48:14.000Z,14
2022-12-06T06:49:31.028Z,19
2022-12-06T06:50:47.283Z,22
2022-12-06T06:52:03.519Z,19
2022-12-06T06:53:19.754Z,25
2022-12-06T06:55:52.230Z,27
2022-12-06T06:57:08.489Z,29
2022-12-06T06:58:24.724Z,38
2022-12-06T06:59:40.954Z,40
2022-12-06T07:00:57.210Z,51
2022-12-06T07:02:12.462Z,46
2022-12-06T07:03:28.700Z,62
2022-12-06T07:04:44.933Z,63
2022-12-06T07:06:01.183Z,78
2022-12-06T07:07:17.430Z,89
2022-12-06T07:08:33.673Z,94
2022-12-06T07:09:48.927Z,104
2022-12-06T07:11:05.177Z,111
2022-12-06T07:12:21.406Z,106
2022-12-06T07:13:37.642Z,105
2022-12-06T07:14:53.878Z,126
2022-12-06T07:16:10.126Z,130
2022-12-06T07:17:26.375Z,128
2022-12-06T07:18:42.610Z,129
2022-12-06T07:19:58.850Z,128
2022-12-06T07:21:15.095Z,144
2022-12-06T07:22:31.333Z,135
2022-12-06T07:23:47.571Z,132
2022-12-06T07:25:03.807Z,157
2022-12-06T07:26:19.066Z,170
2022-12-06T07:27:35.314Z,139
2022-12-06T07:28:51.553Z,195
2022-12-06T07:30:07.792Z,264
2022-12-06T07:31:24.031Z,255
2022-12-06T07:32:40.270Z,260
2022-12-06T07:33:56.518Z,286
2022-12-06T07:35:12.763Z,316
2022-12-06T07:36:28.989Z,321
2022-12-06T07:37:45.235Z,382
2022-12-06T07:39:01.477Z,376
2022-12-06T07:40:17.718Z,384
2022-12-06T07:41:33.966Z,391
2022-12-06T07:42:49.216Z,377
2022-12-06T07:44:05.460Z,392
2022-12-06T07:45:21.693Z,398
2022-12-06T07:46:37.935Z,376
2022-12-06T07:47:54.177Z,402
2022-12-06T07:49:10.424Z,438
2022-12-06T07:50:26.671Z,481
2022-12-06T07:51:42.905Z,441
2022-12-06T07:52:59.152Z,364
2022-12-06T07:54:15.378Z,378
2022-12-06T07:55:31.624Z,438
2022-12-06T07:56:47.866Z,453
2022-12-06T07:58:04.101Z,407
2022-12-06T07:59:19.370Z,467
2022-12-06T08:00:35.598Z,370
2022-12-06T08:01:51.848Z,389
2022-12-06T08:04:24.331Z,402
2022-12-06T08:05:40.563Z,359
2022-12-06T08:06:56.811Z,250
2022-12-06T08:08:13.059Z,290
2022-12-06T08:09:29.297Z,330
2022-12-06T08:12:01.773Z,357
2022-12-06T08:13:18.017Z,480
2022-12-06T08:14:34.244Z,435
2022-12-06T08:15:49.507Z,426
2022-12-06T08:17:05.750Z,483
2022-12-06T08:18:21.998Z,480
2022-12-06T08:19:38.238Z,486
2022-12-06T08:20:54.469Z,535
2022-12-06T08:22:10.723Z,445
2022-12-06T08:23:26.950Z,300
2022-12-06T08:24:43.195Z,462
2022-12-06T08:27:15.672Z,387
2022-12-06T08:28:32.069Z,530
2022-12-06T08:29:47.317Z,534
2022-12-06T08:31:03.558Z,445
2022-12-06T08:32:19.809Z,335
2022-12-06T08:34:52.283Z,348
2022-12-06T08:36:08.514Z,329
2022-12-06T08:37:24.769Z,313
2022-12-06T08:38:40.996Z,550
2022-12-06T08:39:57.246Z,577
2022-12-06T08:42:29.736Z,542
2022-12-06T08:43:45.966Z,438
2022-12-06T08:45:01.219Z,426
2022-12-06T08:46:16.480Z,403
2022-12-06T08:47:32.730Z,385
2022-12-06T08:48:48.973Z,360
2022-12-06T08:50:05.206Z,324
2022-12-06T08:51:21.450Z,333
2022-12-06T08:52:37.692Z,402
2022-12-06T08:53:53.920Z,347
2022-12-06T08:55:10.173Z,473
2022-12-06T08:56:26.401Z,434
2022-12-06T08:57:42.660Z,400
2022-12-06T08:58:57.910Z,363
2022-12-06T09:00:13.178Z,397
2022-12-06T09:01:29.404Z,389
2022-12-06T09:02:45.662Z,472
2022-12-06T09:04:01.886Z,486
2022-12-06T09:05:18.142Z,551
2022-12-06T09:06:34.385Z,514
2022-12-06T09:07:50.611Z,547
2022-12-06T09:09:06.856Z,527
2022-12-06T09:10:23.100Z,587
2022-12-06T09:12:55.581Z,791
2022-12-06T09:14:11.831Z,782
2022-12-06T09:15:28.068Z,775
2022-12-06T09:16:43.326Z,864
2022-12-06T09:17:59.552Z,911
2022-12-06T09:20:32.037Z,798
2022-12-06T09:21:47.310Z,732
2022-12-06T09:23:02.570Z,713
2022-12-06T09:24:18.798Z,711
2022-12-06T09:25:35.039Z,737
2022-12-06T09:26:51.276Z,724
2022-12-06T09:28:07.532Z,642
2022-12-06T09:29:23.758Z,607
2022-12-06T09:30:40.004Z,700
2022-12-06T09:31:56.251Z,653
2022-12-06T09:33:12.480Z,611
2022-12-06T09:34:28.716Z,541
2022-12-06T09:35:43.993Z,713
2022-12-06T09:36:59.237Z,546
2022-12-06T09:38:15.488Z,489
2022-12-06T09:40:47.974Z,509
2022-12-06T09:42:04.208Z,600
2022-12-06T09:43:20.451Z,471
2022-12-06T09:44:36.700Z,506
2022-12-06T09:45:52.926Z,489
2022-12-06T09:47:09.172Z,450
2022-12-06T09:48:25.413Z,421
2022-12-06T09:49:41.658Z,392
2022-12-06T09:50:57.885Z,449
2022-12-06T09:52:14.142Z,454
2022-12-06T09:53:29.400Z,493
2022-12-06T09:54:45.626Z,512
2022-12-06T09:56:01.883Z,551
2022-12-06T09:58:34.358Z,447
2022-12-06T09:59:50.592Z,508
2022-12-06T10:01:05.862Z,506
2022-12-06T10:02:21.117Z,704
2022-12-06T10:03:37.354Z,467
2022-12-06T10:04:53.601Z,744
2022-12-06T10:06:09.838Z,846
2022-12-06T10:07:26.081Z,775
2022-12-06T10:08:42.318Z,811
2022-12-06T10:09:58.561Z,819
2022-12-06T10:12:31.047Z,821
2022-12-06T10:13:47.281Z,708
2022-12-06T10:15:03.514Z,627
2022-12-06T10:16:19.763Z,735
2022-12-06T10:17:36.012Z,747
2022-12-06T10:18:51.261Z,681
2022-12-06T10:20:07.501Z,722
2022-12-06T10:21:23.737Z,757
2022-12-06T10:22:39.995Z,815
2022-12-06T10:23:56.228Z,787
2022-12-06T10:25:12.462Z,778
2022-12-06T10:26:28.707Z,776
2022-12-06T10:27:44.941Z,838
2022-12-06T10:29:00.220Z,864
2022-12-06T10:30:15.470Z,801
2022-12-06T10:31:31.710Z,895
2022-12-06T10:32:47.952Z,1161
2022-12-06T10:34:04.198Z,1218
2022-12-06T10:36:36.663Z,1290
2022-12-06T10:37:52.924Z,1562
2022-12-06T10:39:09.154Z,1834
2022-12-06T10:40:25.391Z,1741
2022-12-06T10:41:41.636Z,1424
2022-12-06T10:42:57.867Z,1115
2022-12-06T10:44:14.114Z,878
2022-12-06T10:45:30.356Z,801
2022-12-06T10:46:45.619Z,709
2022-12-06T10:48:01.856Z,744
2022-12-06T10:49:18.093Z,889
2022-12-06T10:50:34.326Z,884
2022-12-06T10:51:50.578Z,691
2022-12-06T10:53:06.823Z,843
2022-12-06T10:54:23.049Z,591
2022-12-06T10:55:39.302Z,929
2022-12-06T10:56:54.553Z,1650
2022-12-06T10:58:09.822Z,1656
2022-12-06T10:59:26.050Z,1366
2022-12-06T11:00:42.293Z,1362
2022-12-06T11:01:58.548Z,1115
2022-12-06T11:03:14.771Z,1022
2022-12-06T11:04:31.021Z,1211
2022-12-06T11:05:47.255Z,885
2022-12-06T11:07:03.511Z,804
2022-12-06T11:08:19.753Z,946
2022-12-06T11:09:35.974Z,784
2022-12-06T11:10:52.233Z,870
2022-12-06T11:12:08.474Z,870
2022-12-06T11:13:24.703Z,736
2022-12-06T11:14:39.965Z,598
2022-12-06T11:15:56.200Z,852
2022-12-06T11:17:12.446Z,969
2022-12-06T11:18:28.689Z,743
2022-12-06T11:19:44.933Z,830
2022-12-06T11:21:01.171Z,1017
2022-12-06T11:22:17.400Z,896
2022-12-06T11:23:33.654Z,747
2022-12-06T11:24:48.914Z,726
2022-12-06T11:26:05.161Z,1051
2022-12-06T11:27:21.393Z,761
2022-12-06T11:28:37.623Z,951
2022-12-06T11:29:53.870Z,823
2022-12-06T11:31:10.123Z,804
2022-12-06T11:32:26.360Z,807
2022-12-06T11:33:42.587Z,587
2022-12-06T11:34:58.833Z,660
2022-12-06T11:37:31.310Z,572
2022-12-06T11:38:47.550Z,1266
2022-12-06T11:40:03.805Z,898
2022-12-06T11:41:19.064Z,717
2022-12-06T11:42:35.300Z,1113
2022-12-06T11:43:51.528Z,1189
2022-12-06T11:45:07.780Z,721
2022-12-06T11:46:24.025Z,1365
2022-12-06T11:47:40.253Z,994
2022-12-06T11:48:56.505Z,1292
2022-12-06T11:50:12.734Z,813
2022-12-06T11:51:28.972Z,920
2022-12-06T11:52:45.212Z,924
2022-12-06T11:54:01.463Z,1072
2022-12-06T11:55:17.711Z,1071
2022-12-06T11:56:33.948Z,1059
2022-12-06T11:57:49.208Z,758
2022-12-06T11:59:05.445Z,970
2022-12-06T12:00:21.692Z,677
2022-12-06T12:01:37.927Z,916
2022-12-06T12:02:54.172Z,710
2022-12-06T12:04:10.409Z,1050
2022-12-06T12:05:26.638Z,824
2022-12-06T12:06:42.880Z,711
2022-12-06T12:07:59.127Z,904
2022-12-06T12:09:15.360Z,1357
2022-12-06T12:10:31.618Z,1177
2022-12-06T12:11:47.840Z,979
2022-12-06T12:13:04.095Z,1097
2022-12-06T12:15:35.590Z,1115
2022-12-06T12:16:51.824Z,1109
2022-12-06T12:18:08.067Z,794
2022-12-06T12:19:24.000Z,724
2022-12-06T12:20:40.557Z,878
2022-12-06T12:21:56.793Z,609
2022-12-06T12:23:13.024Z,1015
2022-12-06T12:24:29.274Z,479
2022-12-06T12:25:45.513Z,910
2022-12-06T12:27:01.754Z,689
2022-12-06T12:28:17.998Z,692
2022-12-06T12:29:34.232Z,575
2022-12-06T12:30:49.501Z,854
2022-12-06T12:32:05.733Z,838
2022-12-06T12:33:21.984Z,714
2022-12-06T12:34:38.213Z,659
2022-12-06T12:35:54.467Z,632
2022-12-06T12:37:10.697Z,724
2022-12-06T12:38:26.930Z,545
2022-12-06T12:39:43.181Z,679
2022-12-06T12:40:59.424Z,854
2022-12-06T12:42:15.654Z,754
2022-12-06T12:43:31.902Z,787
2022-12-06T12:46:04.387Z,688
2022-12-06T12:47:20.619Z,882
2022-12-06T12:48:36.856Z,835
2022-12-06T12:49:53.110Z,637
2022-12-06T12:51:09.388Z,782
2022-12-06T12:52:25.573Z,686
2022-12-06T12:53:41.808Z,643
2022-12-06T12:54:58.045Z,687
2022-12-06T12:56:14.268Z,666
2022-12-06T12:57:29.530Z,602
2022-12-06T12:58:45.776Z,727
2022-12-06T13:00:02.020Z,716
2022-12-06T13:01:18.267Z,649
2022-12-06T13:02:34.507Z,639
2022-12-06T13:03:50.740Z,491
2022-12-06T13:05:06.988Z,532
2022-12-06T13:06:23.220Z,492
2022-12-06T13:07:39.456Z,528
2022-12-06T13:08:55.713Z,639
2022-12-06T13:10:11.940Z,452
2022-12-06T13:11:28.191Z,514
2022-12-06T13:12:44.437Z,579
2022-12-06T13:13:59.680Z,624
2022-12-06T13:15:15.933Z,810
2022-12-06T13:16:32.162Z,599
2022-12-06T13:17:48.414Z,572
2022-12-06T13:19:04.642Z,673
2022-12-06T13:20:20.884Z,711
2022-12-06T13:21:37.131Z,606
2022-12-06T13:22:53.376Z,665
2022-12-06T13:24:09.600Z,606
2022-12-06T13:25:25.843Z,496
2022-12-06T13:26:42.098Z,680
2022-12-06T13:27:58.334Z,540
2022-12-06T13:29:14.571Z,642
2022-12-06T13:30:30.931Z,745
2022-12-06T13:31:47.171Z,704
2022-12-06T13:33:03.417Z,693
2022-12-06T13:34:19.667Z,518
2022-12-06T13:36:52.142Z,496
2022-12-06T13:38:08.371Z,612
2022-12-06T13:39:24.611Z,556
2022-12-06T13:40:40.855Z,544
2022-12-06T13:41:57.096Z,642
2022-12-06T13:43:13.348Z,473
2022-12-06T13:44:29.591Z,563
2022-12-06T13:48:18.298Z,476
2022-12-06T13:49:33.563Z,400
2022-12-06T13:50:49.940Z,333
2022-12-06T13:52:06.166Z,289
2022-12-06T13:53:22.423Z,405
2022-12-06T13:54:38.657Z,352
2022-12-06T13:55:54.901Z,324
2022-12-06T13:57:11.142Z,285
2022-12-06T13:59:43.615Z,275
2022-12-06T14:02:16.110Z,227
2022-12-06T14:03:32.339Z,223
2022-12-06T14:04:48.590Z,233
2022-12-06T14:06:03.834Z,225
2022-12-06T14:07:19.103Z,227
2022-12-06T14:08:35.339Z,211
2022-12-06T14:09:51.581Z,181
2022-12-06T14:11:07.833Z,165
2022-12-06T14:12:24.068Z,171
2022-12-06T14:13:40.302Z,169
2022-12-06T14:14:56.536Z,161
2022-12-06T14:16:12.790Z,160
2022-12-06T14:17:29.029Z,146
2022-12-06T14:18:45.266Z,127
2022-12-06T14:20:00.540Z,129
2022-12-06T14:22:32.028Z,122
2022-12-06T14:23:48.268Z,124
2022-12-06T14:25:04.514Z,102
2022-12-06T14:26:20.745Z,110
2022-12-06T14:27:36.998Z,116
2022-12-06T14:28:53.225Z,105
2022-12-06T14:30:09.480Z,86
2022-12-06T14:32:41.944Z,90
2022-12-06T14:33:58.199Z,78
2022-12-06T14:35:14.433Z,83
2022-12-06T14:36:30.669Z,76
2022-12-06T14:37:45.940Z,63
2022-12-06T14:39:02.163Z,76
2022-12-06T14:40:18.423Z,74
2022-12-06T14:41:34.660Z,62
2022-12-06T14:42:50.902Z,60
2022-12-06T14:44:07.132Z,66
2022-12-06T14:45:23.378Z,55
2022-12-06T14:47:55.852Z,50
2022-12-06T14:49:12.103Z,50
2022-12-06T14:50:28.334Z,50
2022-12-06T14:51:44.586Z,45
2022-12-06T14:53:00.826Z,47
2022-12-06T14:55:33.309Z,32
2022-12-06T14:56:48.574Z,35
2022-12-06T14:58:03.824Z,31
2022-12-06T14:59:20.075Z,31
2022-12-06T15:00:36.312Z,27
2022-12-06T15:03:08.796Z,18
2022-12-06T15:04:25.036Z,22
2022-12-06T15:05:41.274Z,18
2022-12-06T15:06:57.515Z,18
2022-12-06T15:08:13.741Z,9
2022-12-06T15:09:29.998Z,15
2022-12-06T15:10:46.239Z,16
2022-12-06T15:14:34.963Z,10
2022-12-06T15:15:50.205Z,12
2022-12-06T15:18:22.704Z,9
2022-12-06T15:19:38.928Z,3
2022-12-06T15:20:55.177Z,4
2022-12-06T15:22:11.427Z,2
2022-12-06T15:23:27.665Z,2
2022-12-06T15:26:00.139Z,2
2022-12-06T15:28:32.674Z,0
2022-12-06T15:29:48.981Z,0
2022-12-06T15:31:05.222Z,1
2022-12-06T15:32:21.460Z,1
2022-12-06T15:33:36.710Z,1
2022-12-06T15:34:53.000Z,0
2022-12-06T15:36:09.306Z,0
2022-12-06T15:37:25.599Z,0
2022-12-06T15:39:58.195Z,0
2022-12-06T15:41:13.508Z,0
2022-12-06T15:42:29.807Z,0
2022-12-06T15:43:46.083Z,0
2022-12-06T15:45:02.386Z,0
2022-12-06T15:46:18.675Z,0
2022-12-06T15:48:51.280Z,0
2022-12-06T15:50:07.569Z,0
2022-12-06T15:51:23.868Z,0
2022-12-06T15:52:40.164Z,0
2022-12-06T15:53:56.474Z,0
2022-12-06T15:56:29.058Z,0
2022-12-06T15:57:44.372Z,0
2022-12-06T15:59:00.662Z,0
2022-12-06T16:00:16.960Z,0
2022-12-06T16:01:33.259Z,0
2022-12-06T16:02:49.543Z,0
2022-12-06T16:04:05.844Z,0
2022-12-06T16:05:22.141Z,0
2022-12-06T16:06:38.430Z,0
2022-12-06T16:07:54.730Z,0
2022-12-06T16:09:11.026Z,0
2022-12-06T16:10:27.321Z,0
2022-12-06T16:11:43.621Z,0
2022-12-06T16:12:59.909Z,0
2022-12-06T16:14:15.229Z,0
2022-12-06T16:15:30.529Z,0
2022-12-06T16:16:45.837Z,0
2022-12-06T16:18:02.147Z,0
2022-12-06T16:19:18.445Z,0
2022-12-06T16:20:34.738Z,0
2022-12-06T16:21:51.021Z,0
2022-12-06T16:23:07.330Z,0
2022-12-06T16:24:23.605Z,0
2022-12-06T16:26:56.214Z,0
2022-12-06T16:28:12.499Z,0
2022-12-06T16:29:28.785Z,0
2022-12-06T16:30:45.094Z,0
2022-12-06T16:32:01.394Z,0
2022-12-06T16:33:17.677Z,0
2022-12-06T16:34:33.002Z,0
2022-12-06T16:35:49.294Z,0
2022-12-06T16:37:05.575Z,0
2022-12-06T16:38:21.871Z,0
2022-12-06T16:39:38.175Z,0
2022-12-06T16:40:54.458Z,0
2022-12-06T16:42:10.765Z,0
2022-12-06T16:43:26.081Z,0
2022-12-06T16:44:41.386Z,0
2022-12-06T16:45:57.687Z,0
2022-12-06T16:47:13.982Z,0
2022-12-06T16:48:30.279Z,0
2022-12-06T16:49:46.570Z,0
2022-12-06T16:51:02.852Z,0
2022-12-06T16:52:19.166Z,0
2022-12-06T16:53:35.456Z,0
2022-12-06T16:54:51.745Z,0
2022-12-06T16:56:08.045Z,0
2022-12-06T16:57:24.345Z,0
2022-12-06T16:58:40.641Z,0
2022-12-06T16:59:56.931Z,0
2022-12-06T17:01:12.237Z,0
2022-12-06T17:02:28.533Z,0
2022-12-06T17:03:44.834Z,0
2022-12-06T17:05:01.131Z,0
2022-12-06T17:06:17.409Z,0
2022-12-06T17:07:33.708Z,0
2022-12-06T17:08:50.007Z,0
2022-12-06T17:10:06.291Z,0
2022-12-06T17:11:22.586Z,0
2022-12-06T17:12:38.882Z,0
2022-12-06T17:13:55.181Z,0
2022-12-06T17:15:11.471Z,0
2022-12-06T17:16:27.777Z,0
2022-12-06T17:17:43.088Z,0
2022-12-06T17:20:15.670Z,0
2022-12-06T17:21:31.973Z,0
2022-12-06T17:22:48.271Z,0
2022-12-06T17:24:04.549Z,0
2022-12-06T17:25:20.860Z,0
2022-12-06T17:26:37.140Z,0
2022-12-06T17:27:53.442Z,0
2022-12-06T17:29:09.728Z,0
2022-12-06T17:30:26.033Z,0
2022-12-06T17:31:42.332Z,0
2022-12-06T17:32:58.622Z,0
2022-12-06T17:34:13.937Z,0
2022-12-06T17:35:30.223Z,0
2022-12-06T17:36:46.516Z,0
2022-12-06T17:38:02.827Z,0
2022-12-06T17:39:19.123Z,0
2022-12-06T17:40:35.421Z,0
2022-12-06T17:43:07.991Z,0
2022-12-06T17:44:24.289Z,0
2022-12-06T17:45:40.595Z,0
2022-12-06T17:46:56.879Z,0
2022-12-06T17:48:13.187Z,0
2022-12-06T17:49:29.480Z,0
2022-12-06T17:50:44.778Z,0
2022-12-06T17:52:01.077Z,0
2022-12-06T17:53:17.372Z,0
2022-12-06T17:54:33.663Z,0
2022-12-06T17:55:49.954Z,0
2022-12-06T17:57:06.261Z,0
2022-12-06T17:59:38.839Z,0
2022-12-06T18:00:55.146Z,0
2022-12-06T18:02:11.436Z,0
2022-12-06T18:03:27.738Z,0
2022-12-06T18:04:44.034Z,0
2022-12-06T18:06:00.318Z,0
2022-12-06T18:07:15.630Z,0
2022-12-06T18:08:31.930Z,0
2022-12-06T18:09:48.231Z,0
2022-12-06T18:11:04.511Z,0
2022-12-06T18:12:20.816Z,0
2022-12-06T18:13:37.115Z,0
2022-12-06T18:16:09.702Z,0
2022-12-06T18:17:25.982Z,0
2022-12-06T18:18:42.280Z,0
2022-12-06T18:19:58.588Z,0
2022-12-06T18:21:14.865Z,0
2022-12-06T18:22:31.173Z,0
2022-12-06T18:23:46.475Z,0
2022-12-06T18:25:02.769Z,0
2022-12-06T18:26:19.064Z,0
2022-12-06T18:27:35.362Z,0
2022-12-06T18:28:51.664Z,0
2022-12-06T18:30:07.964Z,0
2022-12-06T18:31:24.244Z,0
2022-12-06T18:32:40.549Z,0
2022-12-06T18:33:56.848Z,0
2022-12-06T18:36:29.423Z,0
2022-12-06T18:37:45.724Z,0
2022-12-06T18:39:02.008Z,0
2022-12-06T18:40:18.315Z,0
2022-12-06T18:41:33.629Z,0
2022-12-06T18:42:49.927Z,0
2022-12-06T18:44:06.215Z,0
2022-12-06T18:45:22.501Z,0
2022-12-06T18:46:38.802Z,0
2022-12-06T18:47:55.107Z,0
2022-12-06T18:49:11.391Z,0
2022-12-06T18:50:27.694Z,0
2022-12-06T18:51:43.992Z,0
2022-12-06T18:53:00.280Z,0
2022-12-06T18:54:16.573Z,0
2022-12-06T18:55:32.874Z,0
2022-12-06T18:56:49.166Z,0
2022-12-06T18:58:04.473Z,0
2022-12-06T18:59:20.766Z,0
2022-12-06T19:00:37.065Z,0
2022-12-06T19:01:53.361Z,0
2022-12-06T19:03:09.646Z,0
2022-12-06T19:04:25.948Z,0
2022-12-06T19:06:58.537Z,0
2022-12-06T19:08:14.828Z,0
2022-12-06T19:09:31.129Z,0
2022-12-06T19:10:47.430Z,0
2022-12-06T19:12:03.725Z,0
2022-12-06T19:13:20.010Z,0
2022-12-06T19:14:35.331Z,0